METAR Data
IDs: Format: Raw Decoded Include TAF

Data at: 0229 UTC 12 May 2021

KMQJ 120215Z AUTO 00000KT 10SM CLR 07/03 A3036 RMK AO1
KMQJ 120155Z AUTO 00000KT 10SM CLR 07/03 A3036 RMK AO1
KMQJ 120135Z AUTO 00000KT 10SM CLR 08/03 A3034 RMK AO1
KMQJ 120115Z AUTO 00000KT 10SM CLR 08/03 A3033 RMK AO1
KMQJ 120055Z AUTO 00000KT 10SM CLR 09/02 A3032 RMK AO1
KMQJ 120035Z AUTO 00000KT 10SM CLR 09/03 A3031 RMK AO1
KMQJ 120015Z AUTO 00000KT 10SM CLR 10/02 A3030 RMK AO1
KMQJ 112355Z AUTO 00000KT 10SM CLR 11/02 A3030 RMK AO1
KMQJ 112335Z AUTO 00000KT 10SM CLR 11/02 A3029 RMK
KMQJ 112315Z AUTO 36009KT 10SM CLR 11/02 A3028 RMK AO1
KMQJ 112255Z AUTO 00000KT 10SM SCT055 12/03 A3028 RMK AO1
KMQJ 112235Z AUTO 36011KT 10SM SCT055 12/03 A3027 RMK AO1
KMQJ 112215Z AUTO 36010G16KT 10SM SCT055 12/03 A3028 RMK AO1
KMQJ 112155Z AUTO 00000KT 10SM BKN055 13/03 A3028 RMK AO1
KMQJ 112135Z AUTO 35009KT 10SM SCT055 13/03 A3029 RMK A
KMQJ 112115Z AUTO 02012G17KT 10SM BKN055 13/03 A3028 RMK AO1
KMQJ 112055Z AUTO 35014KT 10SM SCT055 13/04 A3027 RMK AO1
KMQJ 112035Z AUTO 36013G18KT 10SM SCT055 13/04 A3027 RMK AO1
KMQJ 112015Z AUTO 35012G18KT 10SM SCT055 13/04 A3028 RMK AO1
KMQJ 111955Z AUTO 35011G18KT 10SM SCT055 13/03 A3028 RMK AO1
KMQJ 111935Z AUTO 33012G15KT 10SM SCT055 13/03 A3029 RMK AO1
KMQJ 111915Z AUTO 01006G10KT 10SM SCT055 14/04 A3029 RMK AO1
KMQJ 111855Z AUTO 35012G16KT 10SM SCT055 13/03 A3029 RMK AO1
KMQJ 111835Z AUTO 36010G19KT 10SM SCT055 13/03 A3030 RMK AO1
KMQJ 111815Z AUTO 36010G18KT 10SM SCT055 13/02 A3030 RMK AO1
KMQJ 111755Z AUTO 35011G16KT 10SM SCT055 13/04 A3030 RMK AO1
KMQJ 111735Z AUTO 02013G19KT 10SM SCT050 13/03 A3031 RMK AO1
KMQJ 111715Z AUTO 36014G17KT 10SM CLR 13/03 A3032 RMK AO1
KMQJ 111655Z AUTO 00000KT 10SM CLR 12/03 A3032 RMK AO1
KMQJ 111635Z AUTO 02010G14KT 10SM CLR 12/02 A3032 RMK A
KMQJ 111615Z AUTO 03005G15KT 10SM CLR 12/03 A3031 RMK AO1
KMQJ 111555Z AUTO 36012G16KT 10SM CLR 11/03 A3031 RMK A
KMQJ 111535Z AUTO 02012G17KT 10SM CLR 11/03 A3031 RMK AO1
KMQJ 111515Z AUTO 04007G17KT 10SM CLR 11/03 A3031 RMK AO1
KMQJ 111455Z AUTO 02011G14KT 10SM CLR 10/03 A3031 RMK AO1
KMQJ 111435Z AUTO 03011G15KT 10SM CLR 10/03 A3030 RMK AO1
KMQJ 111415Z AUTO 03010KT 10SM BKN095 09/03 A3030 RMK AO1
KMQJ 111355Z AUTO 03010KT 10SM OVC095 08/04 A3029 RMK AO1
KMQJ 111335Z AUTO 02009KT 10SM OVC085 08/04 A3029 RMK AO1
KMQJ 111315Z AUTO 03005KT 10SM BKN085 OVC110 07/04 A3028 RMK AO1
KMQJ 111255Z AUTO 02006KT 10SM BKN075 OVC110 08/04 A3028 RMK AO1
KMQJ 111235Z AUTO 01003KT 10SM SCT075 BKN090 OVC110 06/04 A3028 RMK AO1
KMQJ 111215Z AUTO 00000KT 10SM SCT065 OVC075 06/05 A3027 RMK AO1
KMQJ 111155Z AUTO 00000KT 10SM BKN060 OVC075 06/05 A3026 RMK AO1
KMQJ 111135Z AUTO 00000KT 10SM OVC060 06/06 A3026 RMK AO1
KMQJ 111115Z AUTO 00000KT 10SM OVC050 06/06 A3025 RMK AO1
KMQJ 111055Z AUTO 02008KT 10SM OVC050 06/06 A3024 RMK AO1
KMQJ 111035Z AUTO 01006KT 10SM OVC050 06/06 A3024 RMK AO1
KMQJ 111015Z AUTO 00000KT 10SM OVC050 06/06 A3023 RMK AO1
KMQJ 110955Z AUTO 00000KT 10SM OVC050 06/06 A3023 RMK AO1
KMQJ 110935Z AUTO 00000KT 10SM BKN048 OVC055 07/06 A3022 RMK AO1
KMQJ 110915Z AUTO 36007KT 10SM SCT042 BKN050 OVC080 07/07 A3021 RMK AO1
KMQJ 110855Z AUTO 36009KT 10SM BKN042 OVC050 07/07 A3020 RMK AO1
KMQJ 110835Z AUTO 01010KT 10SM SCT007 BKN042 OVC050 07/07 A3019 RMK AO1
KMQJ 110815Z AUTO 36008KT 10SM SCT009 SCT015 OVC042 08/08 A3019 RMK AO1
KMQJ 110755Z AUTO 34005KT 10SM OVC042 08/08 A3019 RMK AO1
KMQJ 110735Z AUTO 36007KT 10SM OVC040 08/08 A3019 RMK AO1
KMQJ 110715Z AUTO 00000KT 10SM SCT037 BKN045 OVC050 08/08 A3018 RMK AO1
KMQJ 110655Z AUTO 00000KT 10SM SCT009 OVC050 08/08 A3018 RMK AO1
KMQJ 110635Z AUTO 00000KT 10SM SCT011 OVC050 08/08 A3018 RMK AO1
KMQJ 110615Z AUTO 00000KT 10SM BKN060 OVC070 08/08 A3018 RMK AO1
KMQJ 110555Z AUTO 00000KT 10SM OVC060 09/09 A3018 RMK AO1
KMQJ 110535Z AUTO 00000KT 10SM OVC060 09/09 A3018 RMK AO1
KMQJ 110515Z AUTO 00000KT 10SM OVC060 09/09 A3018 RMK AO1
KMQJ 110455Z AUTO 00000KT 10SM OVC050 09/09 A3018 RMK AO1
KMQJ 110435Z AUTO 00000KT 10SM BKN050 OVC080 09/09 A3018 RMK AO1
KMQJ 110415Z AUTO 00000KT 10SM SCT060 BKN090 OVC110 09/09 A3017 RMK AO1
KMQJ 110355Z AUTO 00000KT 10SM SCT060 BKN090 OVC110 09/09 A3017 RMK AO1
KMQJ 110335Z AUTO 00000KT 10SM BKN060 BKN080 OVC090 10/09 A3018 RMK AO1
KMQJ 110315Z AUTO 00000KT 10SM BKN060 BKN080 OVC090 10/09 A3018 RMK AO1
KMQJ 110255Z AUTO 01004KT 10SM OVC050 10/09 A3017 RMK AO1
KMQJ 110235Z AUTO 00000KT 10SM OVC050 10/10 A3017 RMK AO1
KMQJ 110215Z AUTO 34011KT 10SM OVC060 11/09 A3016 RMK AO1
KMQJ 110155Z AUTO 00000KT 10SM OVC065 11/09 A3014 RMK AO1
KMQJ 110135Z AUTO 00000KT 10SM OVC070 12/08 A3013 RMK AO1
KMQJ 110115Z AUTO 00000KT 10SM OVC070 12/07 A3012 RMK AO1
KMQJ 110055Z AUTO 00000KT 10SM BKN070 OVC080 12/07 A3012 RMK AO1
KMQJ 110035Z AUTO 00000KT 10SM SCT055 BKN070 OVC090 13/07 A3012 RMK AO1
KMQJ 110015Z AUTO 00000KT 10SM OVC055 13/07 A3012 RMK AO1
KMQJ 102355Z AUTO 00000KT 10SM BKN055 OVC075 13/07 A3012 RMK AO1
KMQJ 102335Z AUTO 00000KT 10SM SCT055 BKN075 BKN110 14/07 A3012 RMK AO1
KMQJ 102315Z AUTO 00000KT 10SM SCT055 BKN075 BKN110 14/07 A3012 RMK AO1
KMQJ 102255Z AUTO 00000KT 10SM BKN055 OVC070 14/06 A3012 RMK AO1
KMQJ 102235Z AUTO 00000KT 10SM BKN055 OVC070 15/06 A3012 RMK AO1
KMQJ 102215Z AUTO 00000KT 10SM OVC055 15/06 A3012 RMK AO1
KMQJ 102155Z AUTO 00000KT 10SM BKN055 15/05 A3012 RMK AO1
KMQJ 102135Z AUTO 00000KT 10SM OVC055 15/06 A3012 RMK AO1
KMQJ 102115Z AUTO 00000KT 10SM OVC065 15/06 A3012 RMK AO1
KMQJ 102055Z AUTO 00000KT 10SM BKN065 15/05 A3012 RMK AO1
KMQJ 102035Z AUTO 31003KT 10SM SCT065 15/05 A3012 RMK AO1
KMQJ 102015Z AUTO 00000KT 10SM SCT055 16/05 A3012 RMK AO1
KMQJ 101955Z AUTO 00000KT 10SM SCT055 SCT065 15/06 A3012 RMK AO1
KMQJ 101935Z AUTO 00000KT 10SM SCT060 15/06 A3013 RMK AO1
KMQJ 101915Z AUTO 00000KT 10SM SCT050 BKN060 BKN075 15/06 A3014 RMK AO1
KMQJ 101855Z AUTO 00000KT 10SM SCT050 BKN065 15/06 A3014 RMK AO1
KMQJ 101835Z AUTO 00000KT 10SM SCT050 BKN065 15/07 A3014 RMK AO1
KMQJ 101815Z AUTO 00000KT 10SM OVC050 15/07 A3014 RMK AO1
KMQJ 101755Z AUTO 00000KT 10SM BKN048 BKN060 14/05 A3015 RMK AO1
KMQJ 101735Z AUTO 00000KT 10SM BKN048 13/06 A3014 RMK AO1
KMQJ 101715Z AUTO 00000KT 10SM SCT110 14/06 A3013 RMK AO1
KMQJ 101655Z AUTO 00000KT 10SM CLR 14/06 A3014 RMK AO1
KMQJ 101635Z AUTO 00000KT 10SM CLR 14/06 A3014 RMK AO1
KMQJ 101615Z AUTO 00000KT 10SM CLR 13/06 A3015 RMK AO1
KMQJ 101555Z AUTO 00000KT 10SM CLR 13/07 A3015 RMK AO1
KMQJ 101535Z AUTO 00000KT 10SM CLR 12/06 A3014 RMK AO1
KMQJ 101515Z AUTO 00000KT 10SM CLR 12/07 A3014 RMK AO1
KMQJ 101455Z AUTO 00000KT 10SM CLR 11/07 A3014 RMK AO1
KMQJ 101435Z AUTO 00000KT 10SM CLR 10/07 A3014 RMK AO1